sensor_id;sensor_type;location;lat;lon;timestamp;P1;durP1;ratioP1;P2;durP2;ratioP2
11893;SDS011;6006;49.696;8.662;2024-03-23T00:53:04;8.90;;;4.70;;
11893;SDS011;6006;49.696;8.662;2024-03-23T00:55:31;5.37;;;4.67;;
11893;SDS011;6006;49.696;8.662;2024-03-23T00:57:57;8.70;;;5.17;;
11893;SDS011;6006;49.696;8.662;2024-03-23T01:00:24;6.30;;;4.87;;
11893;SDS011;6006;49.696;8.662;2024-03-23T01:02:50;6.87;;;4.40;;
11893;SDS011;6006;49.696;8.662;2024-03-23T01:05:17;6.70;;;4.87;;
11893;SDS011;6006;49.696;8.662;2024-03-23T01:07:43;9.17;;;4.90;;
11893;SDS011;6006;49.696;8.662;2024-03-23T01:10:11;6.93;;;5.33;;
11893;SDS011;6006;49.696;8.662;2024-03-23T01:12:37;5.27;;;4.77;;
11893;SDS011;6006;49.696;8.662;2024-03-23T01:15:04;11.07;;;5.77;;
11893;SDS011;6006;49.696;8.662;2024-03-23T01:17:30;7.13;;;4.93;;
11893;SDS011;6006;49.696;8.662;2024-03-23T01:19:57;8.40;;;5.37;;
11893;SDS011;6006;49.696;8.662;2024-03-23T01:22:23;11.60;;;5.30;;
11893;SDS011;6006;49.696;8.662;2024-03-23T01:24:50;6.30;;;4.87;;
11893;SDS011;6006;49.696;8.662;2024-03-23T01:27:17;6.70;;;5.00;;
11893;SDS011;6006;49.696;8.662;2024-03-23T01:29:44;7.63;;;5.43;;
11893;SDS011;6006;49.696;8.662;2024-03-23T01:32:10;7.83;;;6.13;;
11893;SDS011;6006;49.696;8.662;2024-03-23T01:34:37;8.80;;;5.73;;
11893;SDS011;6006;49.696;8.662;2024-03-23T01:37:03;9.40;;;6.63;;
11893;SDS011;6006;49.696;8.662;2024-03-23T01:39:29;9.77;;;7.50;;
11893;SDS011;6006;49.696;8.662;2024-03-23T01:41:55;10.83;;;7.90;;
11893;SDS011;6006;49.696;8.662;2024-03-23T01:44:24;10.10;;;6.47;;
11893;SDS011;6006;49.696;8.662;2024-03-23T01:46:50;12.40;;;7.77;;
11893;SDS011;6006;49.696;8.662;2024-03-23T01:49:17;8.17;;;6.67;;
11893;SDS011;6006;49.696;8.662;2024-03-23T01:51:43;10.37;;;6.77;;
11893;SDS011;6006;49.696;8.662;2024-03-23T01:54:11;10.23;;;5.67;;
11893;SDS011;6006;49.696;8.662;2024-03-23T01:56:37;6.57;;;5.47;;
11893;SDS011;6006;49.696;8.662;2024-03-23T01:59:04;5.80;;;5.00;;
11893;SDS011;6006;49.696;8.662;2024-03-23T02:01:32;9.27;;;4.60;;
11893;SDS011;6006;49.696;8.662;2024-03-23T02:04:01;7.37;;;4.77;;
11893;SDS011;6006;49.696;8.662;2024-03-23T02:06:27;7.23;;;5.07;;
11893;SDS011;6006;49.696;8.662;2024-03-23T02:08:54;8.57;;;5.00;;
11893;SDS011;6006;49.696;8.662;2024-03-23T02:11:20;5.20;;;4.30;;
11893;SDS011;6006;49.696;8.662;2024-03-23T02:13:47;5.83;;;4.63;;
11893;SDS011;6006;49.696;8.662;2024-03-23T02:16:13;5.57;;;4.60;;
11893;SDS011;6006;49.696;8.662;2024-03-23T02:18:41;5.07;;;4.53;;
11893;SDS011;6006;49.696;8.662;2024-03-23T02:21:07;5.97;;;4.50;;
11893;SDS011;6006;49.696;8.662;2024-03-23T02:23:35;7.10;;;4.90;;
11893;SDS011;6006;49.696;8.662;2024-03-23T02:26:01;8.87;;;4.60;;
11893;SDS011;6006;49.696;8.662;2024-03-23T02:28:28;6.07;;;5.20;;
11893;SDS011;6006;49.696;8.662;2024-03-23T02:30:54;6.53;;;5.33;;
11893;SDS011;6006;49.696;8.662;2024-03-23T02:33:21;6.40;;;5.27;;
11893;SDS011;6006;49.696;8.662;2024-03-23T02:35:47;6.27;;;5.00;;
11893;SDS011;6006;49.696;8.662;2024-03-23T02:38:14;6.67;;;5.03;;
11893;SDS011;6006;49.696;8.662;2024-03-23T02:40:41;5.73;;;5.10;;
11893;SDS011;6006;49.696;8.662;2024-03-23T02:43:08;7.00;;;5.40;;
11893;SDS011;6006;49.696;8.662;2024-03-23T02:45:34;5.90;;;5.17;;
11893;SDS011;6006;49.696;8.662;2024-03-23T02:48:00;7.60;;;5.43;;
11893;SDS011;6006;49.696;8.662;2024-03-23T02:50:26;6.53;;;5.47;;
11893;SDS011;6006;49.696;8.662;2024-03-23T02:52:53;6.60;;;5.07;;
11893;SDS011;6006;49.696;8.662;2024-03-23T02:55:19;7.37;;;6.17;;
11893;SDS011;6006;49.696;8.662;2024-03-23T02:57:47;7.27;;;5.50;;
11893;SDS011;6006;49.696;8.662;2024-03-23T03:00:13;8.30;;;5.30;;
11893;SDS011;6006;49.696;8.662;2024-03-23T03:02:40;6.93;;;5.20;;
11893;SDS011;6006;49.696;8.662;2024-03-23T03:05:06;6.93;;;4.93;;
11893;SDS011;6006;49.696;8.662;2024-03-23T03:07:34;10.20;;;6.40;;
11893;SDS011;6006;49.696;8.662;2024-03-23T03:09:59;8.23;;;5.83;;
11893;SDS011;6006;49.696;8.662;2024-03-23T03:12:26;8.40;;;5.80;;
11893;SDS011;6006;49.696;8.662;2024-03-23T03:14:54;6.83;;;5.80;;
11893;SDS011;6006;49.696;8.662;2024-03-23T03:17:21;8.13;;;5.93;;
11893;SDS011;6006;49.696;8.662;2024-03-23T03:19:48;7.90;;;5.83;;
11893;SDS011;6006;49.696;8.662;2024-03-23T03:22:20;10.03;;;5.93;;
11893;SDS011;6006;49.696;8.662;2024-03-23T03:24:46;7.63;;;6.20;;
11893;SDS011;6006;49.696;8.662;2024-03-23T03:27:13;8.37;;;6.37;;
11893;SDS011;6006;49.696;8.662;2024-03-23T03:29:40;9.83;;;5.60;;
11893;SDS011;6006;49.696;8.662;2024-03-23T03:32:08;7.53;;;5.80;;
11893;SDS011;6006;49.696;8.662;2024-03-23T03:34:34;10.90;;;6.33;;
11893;SDS011;6006;49.696;8.662;2024-03-23T03:37:01;7.73;;;5.97;;
11893;SDS011;6006;49.696;8.662;2024-03-23T03:39:26;10.20;;;6.27;;
11893;SDS011;6006;49.696;8.662;2024-03-23T03:41:53;10.57;;;5.80;;
11893;SDS011;6006;49.696;8.662;2024-03-23T03:44:19;7.83;;;6.27;;
11893;SDS011;6006;49.696;8.662;2024-03-23T03:46:46;8.50;;;6.53;;
11893;SDS011;6006;49.696;8.662;2024-03-23T03:49:13;7.10;;;5.40;;
11893;SDS011;6006;49.696;8.662;2024-03-23T03:51:40;9.43;;;6.13;;
11893;SDS011;6006;49.696;8.662;2024-03-23T03:54:06;8.43;;;5.93;;
11893;SDS011;6006;49.696;8.662;2024-03-23T03:56:33;9.83;;;6.20;;
11893;SDS011;6006;49.696;8.662;2024-03-23T03:58:59;10.13;;;5.80;;
11893;SDS011;6006;49.696;8.662;2024-03-23T04:01:26;9.13;;;5.77;;
11893;SDS011;6006;49.696;8.662;2024-03-23T04:03:51;7.80;;;5.83;;
11893;SDS011;6006;49.696;8.662;2024-03-23T04:06:20;11.40;;;6.33;;
11893;SDS011;6006;49.696;8.662;2024-03-23T04:08:46;8.47;;;6.20;;
11893;SDS011;6006;49.696;8.662;2024-03-23T04:11:13;9.43;;;6.20;;
11893;SDS011;6006;49.696;8.662;2024-03-23T04:13:39;10.17;;;6.63;;
11893;SDS011;6006;49.696;8.662;2024-03-23T04:16:06;12.00;;;6.90;;
11893;SDS011;6006;49.696;8.662;2024-03-23T04:18:34;8.83;;;6.23;;
11893;SDS011;6006;49.696;8.662;2024-03-23T04:21:00;10.00;;;6.73;;
11893;SDS011;6006;49.696;8.662;2024-03-23T04:23:28;10.53;;;6.63;;
11893;SDS011;6006;49.696;8.662;2024-03-23T04:25:55;9.90;;;6.90;;
11893;SDS011;6006;49.696;8.662;2024-03-23T04:28:21;9.80;;;7.17;;
11893;SDS011;6006;49.696;8.662;2024-03-23T04:30:48;13.57;;;6.83;;
11893;SDS011;6006;49.696;8.662;2024-03-23T04:33:14;13.80;;;6.07;;
11893;SDS011;6006;49.696;8.662;2024-03-23T04:35:41;11.67;;;6.30;;
11893;SDS011;6006;49.696;8.662;2024-03-23T04:38:06;13.13;;;6.53;;
11893;SDS011;6006;49.696;8.662;2024-03-23T04:40:35;11.43;;;5.47;;
11893;SDS011;6006;49.696;8.662;2024-03-23T04:43:02;12.67;;;6.03;;
11893;SDS011;6006;49.696;8.662;2024-03-23T04:45:29;9.27;;;6.40;;
11893;SDS011;6006;49.696;8.662;2024-03-23T04:47:56;12.10;;;5.63;;
11893;SDS011;6006;49.696;8.662;2024-03-23T04:50:22;9.80;;;5.80;;
11893;SDS011;6006;49.696;8.662;2024-03-23T04:52:49;7.63;;;5.37;;
11893;SDS011;6006;49.696;8.662;2024-03-23T04:55:16;11.30;;;6.50;;
11893;SDS011;6006;49.696;8.662;2024-03-23T04:57:44;12.90;;;7.50;;
11893;SDS011;6006;49.696;8.662;2024-03-23T05:00:11;10.73;;;7.00;;
11893;SDS011;6006;49.696;8.662;2024-03-23T05:02:43;11.30;;;6.20;;
11893;SDS011;6006;49.696;8.662;2024-03-23T05:05:10;6.40;;;5.20;;
11893;SDS011;6006;49.696;8.662;2024-03-23T05:07:38;6.53;;;3.70;;
11893;SDS011;6006;49.696;8.662;2024-03-23T05:10:04;5.03;;;3.43;;
11893;SDS011;6006;49.696;8.662;2024-03-23T05:12:33;7.07;;;3.90;;
11893;SDS011;6006;49.696;8.662;2024-03-23T05:15:01;5.37;;;3.73;;
11893;SDS011;6006;49.696;8.662;2024-03-23T05:17:28;6.00;;;3.80;;
11893;SDS011;6006;49.696;8.662;2024-03-23T05:19:55;3.87;;;3.30;;
11893;SDS011;6006;49.696;8.662;2024-03-23T05:22:21;5.50;;;3.60;;
11893;SDS011;6006;49.696;8.662;2024-03-23T05:24:48;4.00;;;2.80;;
11893;SDS011;6006;49.696;8.662;2024-03-23T05:27:14;3.53;;;2.20;;
11893;SDS011;6006;49.696;8.662;2024-03-23T05:29:41;2.27;;;1.67;;
11893;SDS011;6006;49.696;8.662;2024-03-23T05:32:09;2.10;;;1.60;;
11893;SDS011;6006;49.696;8.662;2024-03-23T05:34:35;2.37;;;1.57;;
11893;SDS011;6006;49.696;8.662;2024-03-23T05:37:01;2.43;;;1.50;;
11893;SDS011;6006;49.696;8.662;2024-03-23T05:39:28;1.33;;;1.10;;
11893;SDS011;6006;49.696;8.662;2024-03-23T05:41:54;2.37;;;1.40;;
11893;SDS011;6006;49.696;8.662;2024-03-23T05:44:21;1.23;;;1.10;;
11893;SDS011;6006;49.696;8.662;2024-03-23T05:46:47;1.70;;;1.37;;
11893;SDS011;6006;49.696;8.662;2024-03-23T05:49:16;1.70;;;1.60;;
11893;SDS011;6006;49.696;8.662;2024-03-23T05:51:43;1.37;;;1.13;;
11893;SDS011;6006;49.696;8.662;2024-03-23T05:54:09;1.63;;;1.53;;
11893;SDS011;6006;49.696;8.662;2024-03-23T05:56:35;2.33;;;1.77;;
11893;SDS011;6006;49.696;8.662;2024-03-23T05:59:02;1.60;;;1.33;;
11893;SDS011;6006;49.696;8.662;2024-03-23T06:01:29;1.97;;;1.57;;
11893;SDS011;6006;49.696;8.662;2024-03-23T06:03:57;2.57;;;2.37;;
11893;SDS011;6006;49.696;8.662;2024-03-23T06:06:27;2.83;;;1.87;;
11893;SDS011;6006;49.696;8.662;2024-03-23T06:08:55;2.27;;;1.53;;
11893;SDS011;6006;49.696;8.662;2024-03-23T06:11:22;1.87;;;1.50;;
11893;SDS011;6006;49.696;8.662;2024-03-23T06:13:48;1.27;;;1.17;;
11893;SDS011;6006;49.696;8.662;2024-03-23T06:16:15;1.30;;;1.00;;
11893;SDS011;6006;49.696;8.662;2024-03-23T06:18:41;1.00;;;1.00;;
11893;SDS011;6006;49.696;8.662;2024-03-23T06:21:12;1.10;;;0.90;;
11893;SDS011;6006;49.696;8.662;2024-03-23T06:23:40;0.80;;;0.80;;
11893;SDS011;6006;49.696;8.662;2024-03-23T06:26:07;0.83;;;0.83;;
11893;SDS011;6006;49.696;8.662;2024-03-23T06:28:33;1.17;;;0.80;;
11893;SDS011;6006;49.696;8.662;2024-03-23T06:31:01;1.43;;;0.90;;
11893;SDS011;6006;49.696;8.662;2024-03-23T06:33:27;1.23;;;1.13;;
11893;SDS011;6006;49.696;8.662;2024-03-23T06:35:54;0.60;;;0.60;;
11893;SDS011;6006;49.696;8.662;2024-03-23T06:38:20;0.93;;;0.53;;
11893;SDS011;6006;49.696;8.662;2024-03-23T06:40:48;0.60;;;0.60;;
11893;SDS011;6006;49.696;8.662;2024-03-23T06:43:15;1.40;;;0.67;;
11893;SDS011;6006;49.696;8.662;2024-03-23T06:45:42;0.40;;;0.40;;
11893;SDS011;6006;49.696;8.662;2024-03-23T06:48:08;0.60;;;0.60;;
11893;SDS011;6006;49.696;8.662;2024-03-23T06:50:35;0.77;;;0.50;;
11893;SDS011;6006;49.696;8.662;2024-03-23T06:53:01;0.40;;;0.40;;
11893;SDS011;6006;49.696;8.662;2024-03-23T06:55:30;0.30;;;0.30;;
11893;SDS011;6006;49.696;8.662;2024-03-23T06:57:57;2.47;;;0.57;;
11893;SDS011;6006;49.696;8.662;2024-03-23T07:00:24;0.20;;;0.20;;
11893;SDS011;6006;49.696;8.662;2024-03-23T07:02:51;0.50;;;0.50;;
11893;SDS011;6006;49.696;8.662;2024-03-23T07:05:17;2.73;;;0.40;;
11893;SDS011;6006;49.696;8.662;2024-03-23T07:07:43;0.30;;;0.30;;
11893;SDS011;6006;49.696;8.662;2024-03-23T07:10:10;0.33;;;0.33;;
11893;SDS011;6006;49.696;8.662;2024-03-23T07:12:36;0.40;;;0.40;;
11893;SDS011;6006;49.696;8.662;2024-03-23T07:15:05;0.20;;;0.20;;
11893;SDS011;6006;49.696;8.662;2024-03-23T07:17:33;0.37;;;0.37;;
11893;SDS011;6006;49.696;8.662;2024-03-23T07:20:00;0.37;;;0.37;;
11893;SDS011;6006;49.696;8.662;2024-03-23T07:22:28;0.30;;;0.27;;
11893;SDS011;6006;49.696;8.662;2024-03-23T07:24:55;0.30;;;0.30;;
11893;SDS011;6006;49.696;8.662;2024-03-23T07:27:21;0.70;;;0.70;;
11893;SDS011;6006;49.696;8.662;2024-03-23T07:29:48;0.57;;;0.57;;
11893;SDS011;6006;49.696;8.662;2024-03-23T07:32:16;0.70;;;0.70;;
11893;SDS011;6006;49.696;8.662;2024-03-23T07:34:42;0.43;;;0.43;;
11893;SDS011;6006;49.696;8.662;2024-03-23T07:37:09;1.17;;;1.07;;
11893;SDS011;6006;49.696;8.662;2024-03-23T07:39:36;0.60;;;0.60;;
11893;SDS011;6006;49.696;8.662;2024-03-23T07:42:02;1.67;;;0.97;;
11893;SDS011;6006;49.696;8.662;2024-03-23T07:44:30;0.93;;;0.93;;
11893;SDS011;6006;49.696;8.662;2024-03-23T07:46:56;1.43;;;1.00;;
11893;SDS011;6006;49.696;8.662;2024-03-23T07:49:24;3.03;;;1.40;;
11893;SDS011;6006;49.696;8.662;2024-03-23T07:51:50;1.53;;;1.43;;
11893;SDS011;6006;49.696;8.662;2024-03-23T07:54:17;1.43;;;1.33;;
11893;SDS011;6006;49.696;8.662;2024-03-23T07:56:43;1.33;;;1.23;;
11893;SDS011;6006;49.696;8.662;2024-03-23T07:59:10;0.73;;;0.73;;
11893;SDS011;6006;49.696;8.662;2024-03-23T08:01:36;1.03;;;0.93;;
11893;SDS011;6006;49.696;8.662;2024-03-23T08:04:03;1.60;;;1.20;;
11893;SDS011;6006;49.696;8.662;2024-03-23T08:06:30;1.80;;;1.63;;
11893;SDS011;6006;49.696;8.662;2024-03-23T08:08:57;1.20;;;1.10;;
11893;SDS011;6006;49.696;8.662;2024-03-23T08:11:26;5.23;;;1.50;;
11893;SDS011;6006;49.696;8.662;2024-03-23T08:13:53;1.27;;;1.10;;
11893;SDS011;6006;49.696;8.662;2024-03-23T08:16:20;2.57;;;1.23;;
11893;SDS011;6006;49.696;8.662;2024-03-23T08:18:47;1.00;;;1.00;;
11893;SDS011;6006;49.696;8.662;2024-03-23T08:21:13;1.63;;;1.20;;
11893;SDS011;6006;49.696;8.662;2024-03-23T08:23:41;1.87;;;1.57;;
11893;SDS011;6006;49.696;8.662;2024-03-23T08:26:08;1.80;;;1.70;;
11893;SDS011;6006;49.696;8.662;2024-03-23T08:28:36;2.03;;;1.20;;
11893;SDS011;6006;49.696;8.662;2024-03-23T08:31:03;2.00;;;1.90;;
11893;SDS011;6006;49.696;8.662;2024-03-23T08:33:31;2.77;;;1.60;;
11893;SDS011;6006;49.696;8.662;2024-03-23T08:35:58;2.13;;;1.87;;
11893;SDS011;6006;49.696;8.662;2024-03-23T08:38:26;2.30;;;1.60;;
11893;SDS011;6006;49.696;8.662;2024-03-23T08:40:57;2.27;;;1.47;;
11893;SDS011;6006;49.696;8.662;2024-03-23T08:43:25;1.40;;;1.23;;
11893;SDS011;6006;49.696;8.662;2024-03-23T08:45:51;4.97;;;3.80;;
11893;SDS011;6006;49.696;8.662;2024-03-23T08:48:18;2.60;;;1.77;;
11893;SDS011;6006;49.696;8.662;2024-03-23T08:50:45;2.07;;;1.67;;
11893;SDS011;6006;49.696;8.662;2024-03-23T08:53:12;3.20;;;2.07;;
11893;SDS011;6006;49.696;8.662;2024-03-23T08:55:39;4.40;;;2.13;;
11893;SDS011;6006;49.696;8.662;2024-03-23T08:58:07;1.70;;;1.60;;
11893;SDS011;6006;49.696;8.662;2024-03-23T09:00:34;3.97;;;1.60;;
11893;SDS011;6006;49.696;8.662;2024-03-23T09:03:01;2.83;;;1.50;;
11893;SDS011;6006;49.696;8.662;2024-03-23T09:05:27;4.57;;;2.03;;
11893;SDS011;6006;49.696;8.662;2024-03-23T09:08:00;2.33;;;1.60;;
11893;SDS011;6006;49.696;8.662;2024-03-23T09:10:26;4.33;;;2.03;;
11893;SDS011;6006;49.696;8.662;2024-03-23T09:12:53;1.73;;;1.57;;
11893;SDS011;6006;49.696;8.662;2024-03-23T09:15:20;2.60;;;1.97;;
11893;SDS011;6006;49.696;8.662;2024-03-23T09:17:47;3.17;;;2.00;;
11893;SDS011;6006;49.696;8.662;2024-03-23T09:20:13;3.17;;;1.53;;
11893;SDS011;6006;49.696;8.662;2024-03-23T09:22:40;2.50;;;2.30;;
11893;SDS011;6006;49.696;8.662;2024-03-23T09:25:06;2.93;;;1.40;;
11893;SDS011;6006;49.696;8.662;2024-03-23T09:27:33;1.17;;;1.07;;
11893;SDS011;6006;49.696;8.662;2024-03-23T09:29:59;3.20;;;1.70;;
11893;SDS011;6006;49.696;8.662;2024-03-23T09:32:27;3.40;;;2.07;;
11893;SDS011;6006;49.696;8.662;2024-03-23T09:34:53;2.13;;;1.60;;
11893;SDS011;6006;49.696;8.662;2024-03-23T09:37:20;3.03;;;1.57;;
11893;SDS011;6006;49.696;8.662;2024-03-23T09:39:46;1.80;;;1.20;;
11893;SDS011;6006;49.696;8.662;2024-03-23T09:42:13;5.27;;;2.10;;
11893;SDS011;6006;49.696;8.662;2024-03-23T09:44:40;1.80;;;1.63;;
11893;SDS011;6006;49.696;8.662;2024-03-23T09:47:06;3.17;;;1.37;;
11893;SDS011;6006;49.696;8.662;2024-03-23T09:49:35;3.00;;;1.57;;
11893;SDS011;6006;49.696;8.662;2024-03-23T09:52:02;3.87;;;1.47;;
11893;SDS011;6006;49.696;8.662;2024-03-23T09:54:28;1.70;;;1.07;;
11893;SDS011;6006;49.696;8.662;2024-03-23T09:56:55;2.70;;;1.30;;
11893;SDS011;6006;49.696;8.662;2024-03-23T09:59:21;2.17;;;1.53;;
11893;SDS011;6006;49.696;8.662;2024-03-23T10:01:48;3.17;;;1.53;;
11893;SDS011;6006;49.696;8.662;2024-03-23T10:07:13;2.20;;;1.17;;
11893;SDS011;6006;49.696;8.662;2024-03-23T10:09:39;1.30;;;1.03;;
11893;SDS011;6006;49.696;8.662;2024-03-23T10:12:07;3.10;;;0.93;;
11893;SDS011;6006;49.696;8.662;2024-03-23T10:14:34;3.70;;;1.63;;
11893;SDS011;6006;49.696;8.662;2024-03-23T10:19:44;1.00;;;0.90;;
11893;SDS011;6006;49.696;8.662;2024-03-23T10:22:13;2.67;;;1.37;;
11893;SDS011;6006;49.696;8.662;2024-03-23T10:24:40;2.00;;;1.10;;
11893;SDS011;6006;49.696;8.662;2024-03-23T10:27:07;1.13;;;0.80;;
11893;SDS011;6006;49.696;8.662;2024-03-23T10:29:33;4.27;;;0.90;;
11893;SDS011;6006;49.696;8.662;2024-03-23T10:32:09;2.93;;;1.27;;
11893;SDS011;6006;49.696;8.662;2024-03-23T10:34:35;4.30;;;1.40;;
11893;SDS011;6006;49.696;8.662;2024-03-23T10:37:04;1.23;;;1.03;;
11893;SDS011;6006;49.696;8.662;2024-03-23T10:39:32;1.50;;;1.37;;
11893;SDS011;6006;49.696;8.662;2024-03-23T10:42:02;3.30;;;1.40;;
11893;SDS011;6006;49.696;8.662;2024-03-23T10:44:28;1.23;;;0.80;;
11893;SDS011;6006;49.696;8.662;2024-03-23T10:46:56;3.07;;;1.33;;
11893;SDS011;6006;49.696;8.662;2024-03-23T10:49:26;1.20;;;0.87;;
11893;SDS011;6006;49.696;8.662;2024-03-23T10:51:56;2.23;;;0.60;;
11893;SDS011;6006;49.696;8.662;2024-03-23T10:54:25;0.97;;;0.70;;
11893;SDS011;6006;49.696;8.662;2024-03-23T10:56:54;2.33;;;0.90;;
11893;SDS011;6006;49.696;8.662;2024-03-23T10:59:22;2.13;;;0.97;;
11893;SDS011;6006;49.696;8.662;2024-03-23T11:01:54;3.03;;;0.83;;
11893;SDS011;6006;49.696;8.662;2024-03-23T11:04:30;3.77;;;0.70;;
11893;SDS011;6006;49.696;8.662;2024-03-23T11:06:58;1.70;;;1.00;;
11893;SDS011;6006;49.696;8.662;2024-03-23T11:09:40;2.33;;;1.10;;
11893;SDS011;6006;49.696;8.662;2024-03-23T11:12:17;2.00;;;0.93;;
11893;SDS011;6006;49.696;8.662;2024-03-23T11:14:51;1.63;;;0.50;;
11893;SDS011;6006;49.696;8.662;2024-03-23T11:17:20;2.87;;;0.93;;
11893;SDS011;6006;49.696;8.662;2024-03-23T11:19:52;0.87;;;0.83;;
11893;SDS011;6006;49.696;8.662;2024-03-23T11:25:19;1.53;;;0.90;;
11893;SDS011;6006;49.696;8.662;2024-03-23T11:27:47;1.83;;;0.67;;
11893;SDS011;6006;49.696;8.662;2024-03-23T11:30:17;1.47;;;0.80;;
11893;SDS011;6006;49.696;8.662;2024-03-23T11:32:46;1.47;;;0.97;;
11893;SDS011;6006;49.696;8.662;2024-03-23T11:35:26;2.30;;;0.53;;
11893;SDS011;6006;49.696;8.662;2024-03-23T11:38:06;1.83;;;0.87;;
11893;SDS011;6006;49.696;8.662;2024-03-23T11:40:35;0.70;;;0.50;;
11893;SDS011;6006;49.696;8.662;2024-03-23T11:43:03;0.50;;;0.50;;
11893;SDS011;6006;49.696;8.662;2024-03-23T11:45:33;0.80;;;0.80;;
11893;SDS011;6006;49.696;8.662;2024-03-23T11:48:05;1.17;;;0.57;;
11893;SDS011;6006;49.696;8.662;2024-03-23T11:50:32;0.93;;;0.50;;
11893;SDS011;6006;49.696;8.662;2024-03-23T11:53:14;2.47;;;0.70;;
11893;SDS011;6006;49.696;8.662;2024-03-23T11:55:43;0.43;;;0.40;;
11893;SDS011;6006;49.696;8.662;2024-03-23T11:58:14;1.50;;;0.60;;
11893;SDS011;6006;49.696;8.662;2024-03-23T12:00:41;1.40;;;0.70;;
11893;SDS011;6006;49.696;8.662;2024-03-23T12:03:09;1.93;;;0.90;;
11893;SDS011;6006;49.696;8.662;2024-03-23T12:05:35;0.40;;;0.40;;
11893;SDS011;6006;49.696;8.662;2024-03-23T12:10:50;1.23;;;0.57;;
11893;SDS011;6006;49.696;8.662;2024-03-23T12:13:18;0.57;;;0.40;;
11893;SDS011;6006;49.696;8.662;2024-03-23T12:15:45;0.47;;;0.30;;
11893;SDS011;6006;49.696;8.662;2024-03-23T12:18:12;2.20;;;1.00;;
11893;SDS011;6006;49.696;8.662;2024-03-23T12:20:38;0.73;;;0.40;;
11893;SDS011;6006;49.696;8.662;2024-03-23T12:23:09;0.63;;;0.50;;
11893;SDS011;6006;49.696;8.662;2024-03-23T12:25:36;0.30;;;0.30;;
11893;SDS011;6006;49.696;8.662;2024-03-23T12:28:06;2.37;;;0.57;;
11893;SDS011;6006;49.696;8.662;2024-03-23T12:30:33;0.43;;;0.43;;
11893;SDS011;6006;49.696;8.662;2024-03-23T12:33:00;1.33;;;0.47;;
11893;SDS011;6006;49.696;8.662;2024-03-23T12:35:26;0.70;;;0.70;;
11893;SDS011;6006;49.696;8.662;2024-03-23T12:37:53;0.63;;;0.30;;
11893;SDS011;6006;49.696;8.662;2024-03-23T12:40:19;0.50;;;0.40;;
11893;SDS011;6006;49.696;8.662;2024-03-23T12:42:46;0.40;;;0.40;;
11893;SDS011;6006;49.696;8.662;2024-03-23T12:45:13;0.57;;;0.50;;
11893;SDS011;6006;49.696;8.662;2024-03-23T12:47:40;0.70;;;0.60;;
11893;SDS011;6006;49.696;8.662;2024-03-23T12:50:06;1.30;;;0.73;;
11893;SDS011;6006;49.696;8.662;2024-03-23T12:52:34;0.57;;;0.37;;
11893;SDS011;6006;49.696;8.662;2024-03-23T12:55:00;1.87;;;0.60;;
11893;SDS011;6006;49.696;8.662;2024-03-23T12:57:28;3.23;;;0.43;;
11893;SDS011;6006;49.696;8.662;2024-03-23T12:59:54;0.73;;;0.40;;
11893;SDS011;6006;49.696;8.662;2024-03-23T13:02:22;2.57;;;0.57;;
11893;SDS011;6006;49.696;8.662;2024-03-23T13:04:49;1.57;;;0.60;;
11893;SDS011;6006;49.696;8.662;2024-03-23T13:07:17;1.10;;;0.60;;
11893;SDS011;6006;49.696;8.662;2024-03-23T13:09:43;1.60;;;0.80;;
11893;SDS011;6006;49.696;8.662;2024-03-23T13:12:10;2.63;;;0.70;;
11893;SDS011;6006;49.696;8.662;2024-03-23T13:14:37;0.93;;;0.73;;
11893;SDS011;6006;49.696;8.662;2024-03-23T13:17:04;0.73;;;0.47;;
11893;SDS011;6006;49.696;8.662;2024-03-23T13:19:33;0.50;;;0.40;;
11893;SDS011;6006;49.696;8.662;2024-03-23T13:21:59;1.47;;;0.43;;
11893;SDS011;6006;49.696;8.662;2024-03-23T13:24:27;0.50;;;0.50;;
11893;SDS011;6006;49.696;8.662;2024-03-23T13:26:53;1.63;;;0.43;;
11893;SDS011;6006;49.696;8.662;2024-03-23T13:29:21;0.80;;;0.50;;
11893;SDS011;6006;49.696;8.662;2024-03-23T13:31:47;0.40;;;0.40;;
11893;SDS011;6006;49.696;8.662;2024-03-23T13:34:14;1.63;;;0.20;;
11893;SDS011;6006;49.696;8.662;2024-03-23T13:36:42;0.30;;;0.30;;
11893;SDS011;6006;49.696;8.662;2024-03-23T13:39:09;0.30;;;0.30;;
11893;SDS011;6006;49.696;8.662;2024-03-23T13:41:38;2.73;;;0.67;;
11893;SDS011;6006;49.696;8.662;2024-03-23T13:44:05;0.60;;;0.40;;
11893;SDS011;6006;49.696;8.662;2024-03-23T13:46:31;0.93;;;0.30;;
11893;SDS011;6006;49.696;8.662;2024-03-23T13:48:58;1.07;;;0.27;;
11893;SDS011;6006;49.696;8.662;2024-03-23T13:51:25;0.30;;;0.30;;
11893;SDS011;6006;49.696;8.662;2024-03-23T13:53:54;0.57;;;0.30;;
11893;SDS011;6006;49.696;8.662;2024-03-23T13:56:21;0.33;;;0.23;;
11893;SDS011;6006;49.696;8.662;2024-03-23T13:58:48;0.20;;;0.20;;
11893;SDS011;6006;49.696;8.662;2024-03-23T14:01:15;2.00;;;0.60;;
11893;SDS011;6006;49.696;8.662;2024-03-23T14:03:42;0.47;;;0.30;;
11893;SDS011;6006;49.696;8.662;2024-03-23T14:06:09;1.43;;;0.47;;
11893;SDS011;6006;49.696;8.662;2024-03-23T14:08:35;0.40;;;0.40;;
11893;SDS011;6006;49.696;8.662;2024-03-23T14:11:05;0.20;;;0.20;;
11893;SDS011;6006;49.696;8.662;2024-03-23T14:13:32;0.13;;;0.13;;
11893;SDS011;6006;49.696;8.662;2024-03-23T14:15:59;2.27;;;0.20;;
11893;SDS011;6006;49.696;8.662;2024-03-23T14:18:25;0.20;;;0.20;;
11893;SDS011;6006;49.696;8.662;2024-03-23T14:20:52;0.10;;;0.10;;
11893;SDS011;6006;49.696;8.662;2024-03-23T14:23:23;0.20;;;0.20;;
11893;SDS011;6006;49.696;8.662;2024-03-23T14:25:52;0.83;;;0.20;;
11893;SDS011;6006;49.696;8.662;2024-03-23T14:28:20;0.50;;;0.20;;
11893;SDS011;6006;49.696;8.662;2024-03-23T14:30:47;0.00;;;0.00;;
11893;SDS011;6006;49.696;8.662;2024-03-23T14:33:14;0.47;;;0.20;;
11893;SDS011;6006;49.696;8.662;2024-03-23T14:35:41;1.37;;;0.33;;
11893;SDS011;6006;49.696;8.662;2024-03-23T14:38:07;0.57;;;0.33;;
11893;SDS011;6006;49.696;8.662;2024-03-23T14:40:34;0.40;;;0.37;;
11893;SDS011;6006;49.696;8.662;2024-03-23T14:43:01;0.57;;;0.50;;
11893;SDS011;6006;49.696;8.662;2024-03-23T14:45:29;0.67;;;0.50;;
11893;SDS011;6006;49.696;8.662;2024-03-23T14:47:55;0.57;;;0.30;;
11893;SDS011;6006;49.696;8.662;2024-03-23T14:50:23;0.30;;;0.30;;
11893;SDS011;6006;49.696;8.662;2024-03-23T14:52:49;1.30;;;0.30;;
11893;SDS011;6006;49.696;8.662;2024-03-23T14:55:16;0.20;;;0.20;;
11893;SDS011;6006;49.696;8.662;2024-03-23T14:57:42;0.27;;;0.20;;
11893;SDS011;6006;49.696;8.662;2024-03-23T15:00:09;0.50;;;0.30;;
11893;SDS011;6006;49.696;8.662;2024-03-23T15:02:38;0.33;;;0.30;;
11893;SDS011;6006;49.696;8.662;2024-03-23T15:05:06;0.77;;;0.77;;
11893;SDS011;6006;49.696;8.662;2024-03-23T15:07:34;0.40;;;0.20;;
11893;SDS011;6006;49.696;8.662;2024-03-23T15:10:01;0.43;;;0.20;;
11893;SDS011;6006;49.696;8.662;2024-03-23T15:12:29;0.37;;;0.20;;
11893;SDS011;6006;49.696;8.662;2024-03-23T15:14:58;0.50;;;0.13;;
11893;SDS011;6006;49.696;8.662;2024-03-23T15:17:23;0.30;;;0.20;;
11893;SDS011;6006;49.696;8.662;2024-03-23T15:19:52;1.80;;;0.60;;
11893;SDS011;6006;49.696;8.662;2024-03-23T15:22:18;0.20;;;0.20;;
11893;SDS011;6006;49.696;8.662;2024-03-23T15:24:46;0.23;;;0.23;;
11893;SDS011;6006;49.696;8.662;2024-03-23T15:27:12;0.27;;;0.10;;
11893;SDS011;6006;49.696;8.662;2024-03-23T15:29:39;0.30;;;0.30;;
11893;SDS011;6006;49.696;8.662;2024-03-23T15:32:09;0.73;;;0.27;;
11893;SDS011;6006;49.696;8.662;2024-03-23T15:34:37;0.20;;;0.20;;
11893;SDS011;6006;49.696;8.662;2024-03-23T15:37:05;0.33;;;0.20;;
11893;SDS011;6006;49.696;8.662;2024-03-23T15:39:32;0.17;;;0.17;;
11893;SDS011;6006;49.696;8.662;2024-03-23T15:41:58;0.20;;;0.20;;
11893;SDS011;6006;49.696;8.662;2024-03-23T15:44:25;0.17;;;0.17;;
11893;SDS011;6006;49.696;8.662;2024-03-23T15:46:51;3.60;;;0.20;;
11893;SDS011;6006;49.696;8.662;2024-03-23T15:49:17;2.30;;;0.30;;
11893;SDS011;6006;49.696;8.662;2024-03-23T15:51:44;1.20;;;0.17;;
11893;SDS011;6006;49.696;8.662;2024-03-23T15:54:13;0.50;;;0.00;;
11893;SDS011;6006;49.696;8.662;2024-03-23T15:56:39;0.20;;;0.20;;
11893;SDS011;6006;49.696;8.662;2024-03-23T15:59:06;0.77;;;0.20;;
11893;SDS011;6006;49.696;8.662;2024-03-23T16:01:32;0.50;;;0.30;;
11893;SDS011;6006;49.696;8.662;2024-03-23T16:04:00;0.10;;;0.10;;